Time;durP1;ratioP1;P1;durP2;ratioP2;P2;SDS_P1;SDS_P2;PMS_P1;PMS_P2;Temp;Humidity;BMP_temperature;BMP_pressure;BME280_temperature;BME280_humidity;BME280_pressure;Samples;Min_cycle;Max_cycle;Signal;HPM_P1;HPM_P2
2021/06/30 00:02:17;;;;;;;3.63;2.40;;;;;;;13.77;100.00;95891.06;6185280;23;20013;-84
2021/06/30 00:04:43;;;;;;;4.27;2.40;;;;;;;13.91;100.00;95898.13;6186056;23;20043;-84
2021/06/30 00:07:09;;;;;;;4.73;2.10;;;;;;;13.98;100.00;95906.94;6185532;23;20016;-84
2021/06/30 00:09:47;;;;;;;5.17;2.10;;;;;;;13.97;100.00;95907.94;6184808;23;20409;-84
2021/06/30 00:12:12;;;;;;;6.37;2.30;;;;;;;13.96;100.00;95911.59;6185640;23;20660;-84
2021/06/30 00:14:38;;;;;;;4.87;2.40;;;;;;;14.01;100.00;95911.03;6185407;23;20009;-84
2021/06/30 00:17:07;;;;;;;3.40;1.90;;;;;;;13.91;100.00;95909.50;6185604;23;20098;-84
2021/06/30 00:19:33;;;;;;;4.47;1.90;;;;;;;13.88;100.00;95899.34;6184984;23;20015;-85
2021/06/30 00:22:06;;;;;;;5.30;2.40;;;;;;;13.85;100.00;95899.72;6211350;23;20087;-85
2021/06/30 00:24:41;;;;;;;4.90;2.33;;;;;;;13.91;100.00;95896.28;6185810;23;20016;-84
2021/06/30 00:27:07;;;;;;;4.67;2.30;;;;;;;13.91;100.00;95896.28;6185340;23;20012;-84
2021/06/30 00:29:33;;;;;;;4.27;2.33;;;;;;;13.84;100.00;95900.69;6185678;23;20013;-84
2021/06/30 00:31:58;;;;;;;4.70;2.33;;;;;;;13.84;100.00;95898.06;6210841;23;20058;-85
2021/06/30 00:34:24;;;;;;;4.90;1.80;;;;;;;13.76;100.00;95902.66;6185400;23;20030;-84
2021/06/30 00:36:50;;;;;;;2.93;1.93;;;;;;;13.75;100.00;95899.19;6208702;23;20399;-85
2021/06/30 00:39:16;;;;;;;5.63;1.60;;;;;;;13.76;100.00;95905.28;6180060;23;20524;-85
2021/06/30 00:41:43;;;;;;;2.37;1.33;;;;;;;13.76;100.00;95902.66;6181433;23;20190;-84
2021/06/30 00:44:09;;;;;;;4.23;1.37;;;;;;;13.75;100.00;95903.63;6210523;23;20001;-84
2021/06/30 00:46:35;;;;;;;4.27;1.67;;;;;;;13.68;100.00;95900.94;6185690;23;20514;-84
2021/06/30 00:49:02;;;;;;;2.03;1.20;;;;;;;13.64;100.00;95897.03;6184974;23;20063;-85
2021/06/30 00:51:29;;;;;;;3.83;1.57;;;;;;;13.71;100.00;95892.63;6208863;23;20032;-84
2021/06/30 00:53:55;;;;;;;2.67;1.50;;;;;;;13.61;100.00;95889.47;6185029;23;20016;-84
2021/06/30 00:56:24;;;;;;;3.93;2.00;;;;;;;13.62;100.00;95891.13;6210342;23;20009;-84
2021/06/30 00:59:01;;;;;;;2.97;1.57;;;;;;;13.63;100.00;95904.13;6182527;23;20058;-84
2021/06/30 01:01:28;;;;;;;3.03;1.60;;;;;;;13.57;100.00;95906.69;6183528;23;20024;-83
2021/06/30 01:03:54;;;;;;;4.30;1.40;;;;;;;13.52;100.00;95899.34;6184277;23;20615;-84
2021/06/30 01:06:20;;;;;;;6.23;1.67;;;;;;;13.54;100.00;95893.84;6184587;23;20076;-84
2021/06/30 01:08:46;;;;;;;6.20;1.90;;;;;;;13.52;100.00;95887.97;6184389;23;20005;-84
2021/06/30 01:11:13;;;;;;;7.90;2.17;;;;;;;13.42;100.00;95888.25;6185553;23;20016;-84
2021/06/30 01:13:41;;;;;;;9.57;2.17;;;;;;;13.37;100.00;95887.97;6209288;23;20015;-84
2021/06/30 01:16:12;;;;;;;2.50;1.63;;;;;;;13.42;100.00;95894.34;6184784;23;20044;-84
2021/06/30 01:18:38;;;;;;;3.30;1.80;;;;;;;13.46;100.00;95893.97;6209501;23;20031;-84
2021/06/30 01:21:09;;;;;;;2.67;1.30;;;;;;;13.39;100.00;95894.72;6182683;23;20012;-84
2021/06/30 01:23:36;;;;;;;2.87;1.80;;;;;;;13.41;100.00;95887.44;6208534;23;20023;-85
2021/06/30 01:26:03;;;;;;;4.00;2.13;;;;;;;13.38;100.00;95881.69;6184254;23;20009;-85
2021/06/30 01:28:42;;;;;;;4.90;1.70;;;;;;;13.41;100.00;95876.88;6184703;23;20012;-85
2021/06/30 01:31:08;;;;;;;3.87;1.77;;;;;;;13.38;100.00;95882.53;6185067;23;20567;-85
2021/06/30 01:33:34;;;;;;;5.33;2.10;;;;;;;13.33;100.00;95882.25;6209735;23;20128;-84
2021/06/30 01:36:02;;;;;;;3.90;2.00;;;;;;;13.37;100.00;95891.44;6184870;23;20084;-85
2021/06/30 01:38:29;;;;;;;8.07;2.00;;;;;;;13.43;100.00;95890.69;6183237;23;20690;-85
2021/06/30 01:40:56;;;;;;;5.67;1.80;;;;;;;13.42;100.00;95898.81;6184453;23;20062;-85
2021/06/30 01:43:23;;;;;;;4.90;1.90;;;;;;;13.50;100.00;95896.06;6184825;23;20004;-84
2021/06/30 01:45:53;;;;;;;2.70;1.97;;;;;;;13.54;100.00;95896.50;6184811;23;20074;-84
2021/06/30 01:48:19;;;;;;;4.77;2.47;;;;;;;13.55;100.00;95898.16;6184621;23;20082;-84
2021/06/30 01:50:47;;;;;;;5.93;2.50;;;;;;;13.56;100.00;95902.44;6184308;23;20436;-83
2021/06/30 01:53:17;;;;;;;4.23;2.17;;;;;;;13.59;100.00;95916.09;6183962;23;20017;-84
2021/06/30 01:55:43;;;;;;;14.33;3.30;;;;;;;13.64;100.00;95915.53;6181814;23;20040;-84
2021/06/30 01:58:09;;;;;;;7.60;2.47;;;;;;;13.60;100.00;95923.00;6179193;23;20638;-85
2021/06/30 02:00:35;;;;;;;4.77;2.30;;;;;;;13.67;100.00;95928.38;6180795;23;20017;-84
2021/06/30 02:03:01;;;;;;;4.63;2.03;;;;;;;13.77;100.00;95938.63;6209317;23;20005;-84
2021/06/30 02:05:29;;;;;;;5.93;2.20;;;;;;;13.85;100.00;95941.19;6184979;23;20036;-84
2021/06/30 02:07:59;;;;;;;3.63;1.93;;;;;;;13.84;100.00;95948.28;6186598;23;20012;-84
2021/06/30 02:10:28;;;;;;;4.37;2.07;;;;;;;13.77;100.00;95950.03;6186628;23;20091;-84
2021/06/30 02:12:56;;;;;;;3.87;2.10;;;;;;;13.74;100.00;95953.03;6187113;23;20012;-84
2021/06/30 02:15:28;;;;;;;4.50;1.73;;;;;;;13.71;100.00;95949.94;6186079;23;20027;-84
2021/06/30 02:18:16;;;;;;;3.30;2.00;;;;;;;13.76;100.00;95945.75;6185337;23;20040;-84
2021/06/30 02:20:41;;;;;;;3.93;1.90;;;;;;;13.68;100.00;95951.13;6178827;23;20052;-84
2021/06/30 02:23:07;;;;;;;5.93;2.40;;;;;;;13.63;100.00;95948.25;6183830;23;20013;-85
2021/06/30 02:25:53;;;;;;;3.50;2.27;;;;;;;13.66;100.00;95947.88;6184918;23;20102;-86
2021/06/30 02:28:20;;;;;;;6.77;2.10;;;;;;;13.59;100.00;95952.25;6186758;23;20120;-87
2021/06/30 02:30:47;;;;;;;9.47;2.77;;;;;;;13.59;100.00;95954.91;6212009;23;19997;-86
2021/06/30 02:33:12;;;;;;;4.10;2.20;;;;;;;13.56;100.00;95955.28;6187234;23;20016;-86
2021/06/30 02:35:41;;;;;;;7.00;2.60;;;;;;;13.51;100.00;95947.88;6187022;23;20004;-86
2021/06/30 02:38:07;;;;;;;2.90;2.03;;;;;;;13.52;100.00;95951.38;6186653;23;20101;-84
2021/06/30 02:40:33;;;;;;;8.03;2.37;;;;;;;13.48;100.00;95952.72;6213694;23;20001;-86
2021/06/30 02:43:12;;;;;;;4.03;1.60;;;;;;;13.41;100.00;95966.69;6161717;23;20012;-86
2021/06/30 02:45:44;;;;;;;6.33;1.80;;;;;;;13.31;100.00;95960.84;6188106;23;20333;-87
2021/06/30 02:48:13;;;;;;;5.40;1.80;;;;;;;13.28;100.00;95960.38;6161774;23;20012;-86
2021/06/30 02:50:39;;;;;;;6.70;2.20;;;;;;;13.28;100.00;95960.38;6162602;23;20384;-86
2021/06/30 02:53:05;;;;;;;3.73;1.70;;;;;;;13.23;100.00;95966.19;6187436;23;20106;-86
2021/06/30 02:55:31;;;;;;;3.30;1.47;;;;;;;13.22;100.00;95964.56;6163416;23;20012;-85
2021/06/30 02:57:57;;;;;;;5.33;1.40;;;;;;;13.21;100.00;95953.19;6161008;23;20023;-86
2021/06/30 03:00:25;;;;;;;2.90;1.30;;;;;;;13.21;100.00;95950.53;6162417;23;20008;-85
2021/06/30 03:02:52;;;;;;;2.67;1.10;;;;;;;13.20;100.00;95942.78;6159948;23;20086;-85
2021/06/30 03:05:19;;;;;;;4.27;1.20;;;;;;;13.18;100.00;95945.63;6160208;23;20028;-86
2021/06/30 03:07:45;;;;;;;3.07;1.10;;;;;;;13.18;100.00;95936.88;6159804;23;20019;-85
2021/06/30 03:10:13;;;;;;;3.60;1.23;;;;;;;13.22;100.00;95938.16;6184364;23;20001;-85
2021/06/30 03:12:39;;;;;;;2.30;1.10;;;;;;;13.20;100.00;95926.94;6158655;23;20016;-86
2021/06/30 03:15:10;;;;;;;3.63;1.03;;;;;;;13.14;100.00;95927.66;6157875;23;20005;-86
2021/06/30 03:17:37;;;;;;;5.27;1.10;;;;;;;13.24;100.00;95941.44;6158261;23;20086;-86
2021/06/30 03:20:15;;;;;;;1.27;0.80;;;;;;;13.25;100.00;95942.28;6151769;23;20008;-86
2021/06/30 03:22:42;;;;;;;1.43;1.03;;;;;;;13.24;100.00;95953.78;6181149;23;20024;-86
2021/06/30 03:25:11;;;;;;;3.70;1.33;;;;;;;13.29;100.00;95970.78;6183986;23;20942;-87
2021/06/30 03:27:38;;;;;;;2.23;1.10;;;;;;;13.14;100.00;95970.72;6159495;23;20012;-87
2021/06/30 03:30:06;;;;;;;3.60;1.13;;;;;;;13.17;100.00;95969.53;6161289;23;20091;-85
2021/06/30 03:32:32;;;;;;;2.53;0.80;;;;;;;13.15;100.00;95968.94;6161678;23;20471;-86
2021/06/30 03:35:01;;;;;;;1.00;0.73;;;;;;;13.02;100.00;95966.91;6185773;23;20420;-86
2021/06/30 03:37:27;;;;;;;3.07;1.20;;;;;;;13.03;100.00;95978.28;6162169;23;20024;-87
2021/06/30 03:40:05;;;;;;;1.47;0.80;;;;;;;13.09;100.00;95975.75;6159586;23;20004;-86
2021/06/30 03:42:31;;;;;;;3.50;1.00;;;;;;;12.97;100.00;95964.78;6216968;23;20012;-86
2021/06/30 03:44:59;;;;;;;2.73;1.40;;;;;;;12.94;100.00;95970.47;6190266;23;20000;-87
2021/06/30 03:47:25;;;;;;;1.33;0.70;;;;;;;12.97;100.00;95964.78;6190747;23;20022;-86
2021/06/30 03:49:53;;;;;;;2.17;1.00;;;;;;;12.88;100.00;95960.63;6214887;23;20083;-86
2021/06/30 03:52:22;;;;;;;1.83;0.63;;;;;;;12.82;100.00;95968.44;6191344;23;20012;-86
2021/06/30 03:54:48;;;;;;;2.03;0.80;;;;;;;12.78;100.00;95962.69;6190801;23;20004;-86
2021/06/30 03:57:15;;;;;;;1.37;0.67;;;;;;;12.70;100.00;95973.31;6215552;23;20016;-86
2021/06/30 03:59:41;;;;;;;0.83;0.60;;;;;;;12.68;100.00;95970.06;6190017;23;20012;-86
2021/06/30 04:02:07;;;;;;;1.10;0.60;;;;;;;12.75;100.00;95965.69;6190617;23;20008;-86
2021/06/30 04:04:33;;;;;;;1.13;0.70;;;;;;;12.72;100.00;95968.69;6215169;23;20008;-84
2021/06/30 04:07:03;;;;;;;2.03;0.60;;;;;;;12.72;100.00;95973.97;6191195;23;20062;-85
2021/06/30 04:09:30;;;;;;;2.10;0.63;;;;;;;12.65;100.00;95979.13;6190178;23;20016;-85
2021/06/30 04:11:57;;;;;;;1.87;0.63;;;;;;;12.66;100.00;95978.13;6215301;23;20057;-84
2021/06/30 04:14:30;;;;;;;1.90;0.70;;;;;;;12.65;100.00;95978.31;6189870;23;20506;-85
2021/06/30 04:16:56;;;;;;;2.30;0.73;;;;;;;12.73;100.00;95978.22;6190656;23;20020;-86
2021/06/30 04:19:22;;;;;;;0.60;0.60;;;;;;;12.62;100.00;95982.13;6189324;23;20337;-85
2021/06/30 04:21:49;;;;;;;2.57;0.70;;;;;;;12.71;100.00;95974.97;6190772;23;20444;-86
2021/06/30 04:24:16;;;;;;;1.27;0.63;;;;;;;12.71;100.00;95973.16;6189772;23;20081;-86
2021/06/30 04:26:47;;;;;;;0.90;0.63;;;;;;;12.76;100.00;95969.16;6214438;23;20043;-86
2021/06/30 04:29:20;;;;;;;1.27;0.67;;;;;;;12.83;100.00;95977.97;6189613;23;20034;-86
2021/06/30 04:31:45;;;;;;;2.75;1.60;;;;;;;12.85;100.00;95979.44;6216121;23;20012;-86
2021/06/30 04:34:11;;;;;;;4.30;1.27;;;;;;;12.82;100.00;95979.00;6190408;23;20011;-86
2021/06/30 04:36:37;;;;;;;2.20;0.70;;;;;;;12.77;100.00;95982.16;6191112;23;20027;-85
2021/06/30 04:39:03;;;;;;;2.10;0.60;;;;;;;12.85;100.00;95976.00;6214253;23;20008;-85
2021/06/30 04:41:29;;;;;;;1.57;0.67;;;;;;;12.80;100.00;95978.34;6189338;23;20023;-86
2021/06/30 04:43:55;;;;;;;4.33;0.80;;;;;;;12.77;100.00;95974.22;6189497;23;20150;-86
2021/06/30 04:46:23;;;;;;;0.63;0.63;;;;;;;12.90;100.00;95984.19;6214016;23;20026;-86
2021/06/30 04:48:53;;;;;;;2.43;0.67;;;;;;;12.87;100.00;95980.06;6191140;23;20004;-86
2021/06/30 04:51:21;;;;;;;0.63;0.50;;;;;;;12.90;100.00;95984.19;6189503;23;20008;-86
2021/06/30 04:53:49;;;;;;;0.93;0.50;;;;;;;12.80;100.00;95981.78;6215752;23;20000;-86
2021/06/30 04:56:15;;;;;;;1.23;0.77;;;;;;;12.91;100.00;95981.38;6190285;23;20016;-85
2021/06/30 04:58:41;;;;;;;3.63;1.00;;;;;;;12.95;100.00;95982.66;6190751;23;20070;-86
2021/06/30 05:01:10;;;;;;;1.20;0.67;;;;;;;12.98;100.00;95984.94;6188621;23;20020;-86
2021/06/30 05:03:36;;;;;;;1.17;0.67;;;;;;;13.03;100.00;95989.66;6191106;23;20004;-88
2021/06/30 05:06:01;;;;;;;1.20;0.60;;;;;;;13.07;100.00;95985.66;6191973;23;20070;-88
2021/06/30 05:08:27;;;;;;;1.70;0.80;;;;;;;13.06;100.00;95977.94;6190262;23;20011;-88
2021/06/30 05:11:04;;;;;;;0.90;0.60;;;;;;;13.11;100.00;95975.53;6190895;23;20015;-88
2021/06/30 05:13:30;;;;;;;1.97;0.60;;;;;;;12.95;100.00;95982.66;6191905;23;20019;-87
2021/06/30 05:15:57;;;;;;;1.63;0.70;;;;;;;12.97;100.00;95972.72;6216759;23;20027;-88
2021/06/30 05:18:23;;;;;;;2.40;0.67;;;;;;;12.88;100.00;95976.44;6190951;23;20652;-88
2021/06/30 05:20:49;;;;;;;3.23;1.10;;;;;;;13.01;100.00;95972.34;6186887;23;20491;-88
2021/06/30 05:23:18;;;;;;;1.90;1.23;;;;;;;12.96;100.00;95968.44;6189618;23;20020;-88
2021/06/30 05:25:46;;;;;;;3.60;0.70;;;;;;;12.86;100.00;95975.81;6192338;23;20062;-88
2021/06/30 05:28:13;;;;;;;2.80;0.80;;;;;;;12.94;100.00;95975.75;6189489;23;20097;-87
2021/06/30 05:30:41;;;;;;;2.07;0.50;;;;;;;13.04;100.00;95974.63;6191923;23;20000;-87
2021/06/30 05:33:08;;;;;;;12.73;11.20;;;;;;;13.12;100.00;95971.94;6190684;23;20036;-88
2021/06/30 05:35:49;;;;;;;2.50;1.03;;;;;;;13.20;100.00;95966.53;6215586;23;20046;-86
2021/06/30 05:38:14;;;;;;;1.83;0.60;;;;;;;13.36;100.00;95970.88;6189294;23;20016;-87
2021/06/30 05:40:41;;;;;;;3.80;0.50;;;;;;;13.47;100.00;95974.84;6180924;23;20012;-86
2021/06/30 05:43:10;;;;;;;1.63;0.77;;;;;;;13.73;100.00;95969.09;6174906;23;20444;-86
2021/06/30 05:45:37;;;;;;;2.13;0.90;;;;;;;14.14;99.98;95974.63;6160137;23;20009;-86
2021/06/30 05:48:04;;;;;;;0.67;0.40;;;;;;;14.16;100.00;95969.97;6160088;23;20008;-86
2021/06/30 05:50:29;;;;;;;3.13;0.70;;;;;;;13.98;100.00;95974.84;6159459;23;20005;-87
2021/06/30 05:52:55;;;;;;;1.20;0.50;;;;;;;13.85;99.29;95975.56;6160670;23;20013;-87
2021/06/30 05:55:23;;;;;;;1.93;0.70;;;;;;;13.84;100.00;95979.19;6160871;23;20005;-88
2021/06/30 05:57:51;;;;;;;1.40;0.50;;;;;;;13.81;99.12;95976.91;6162379;23;20020;-88
2021/06/30 06:00:19;;;;;;;5.10;0.77;;;;;;;13.91;100.00;95980.06;6161650;23;20036;-89
2021/06/30 06:02:46;;;;;;;3.47;0.50;;;;;;;13.75;100.00;95981.13;6156889;23;20015;-87
2021/06/30 06:05:12;;;;;;;0.60;0.30;;;;;;;13.79;100.00;95987.66;6157806;23;20096;-87
2021/06/30 06:07:53;;;;;;;2.20;0.40;;;;;;;13.67;100.00;95979.38;6160639;23;20012;-87
2021/06/30 06:13:30;;;;;;;3.00;0.57;;;;;;;13.74;100.00;95986.56;6211301;23;20023;-88
2021/06/30 06:16:49;;;;;;;2.47;0.50;;;;;;;13.71;98.84;95974.53;6160981;23;20019;-87
2021/06/30 06:19:15;;;;;;;1.13;0.50;;;;;;;13.61;98.86;95984.59;6160332;23;20019;-86
2021/06/30 06:21:41;;;;;;;2.03;0.50;;;;;;;13.75;98.93;95986.41;6160634;23;20428;-87
2021/06/30 06:24:07;;;;;;;0.67;0.50;;;;;;;13.71;98.85;95987.75;6151074;23;20094;-88
2021/06/30 06:26:33;;;;;;;0.60;0.50;;;;;;;13.51;97.99;95981.41;6159992;23;20004;-88
2021/06/30 06:28:58;;;;;;;1.10;0.53;;;;;;;13.43;97.46;95975.22;6143051;23;20352;-88
2021/06/30 06:31:27;;;;;;;2.03;0.40;;;;;;;13.58;98.58;95977.88;6157894;23;20096;-88
2021/06/30 06:33:53;;;;;;;1.57;0.70;;;;;;;13.57;98.07;95978.84;6209002;23;20019;-88
2021/06/30 06:36:20;;;;;;;1.60;0.40;;;;;;;13.81;97.30;95980.34;6155470;23;20005;-88
2021/06/30 06:38:45;;;;;;;3.87;0.53;;;;;;;14.15;95.40;95968.31;6156627;23;20012;-88
2021/06/30 06:41:25;;;;;;;0.83;0.37;;;;;;;13.98;95.58;95966.91;6161302;23;20009;-87
2021/06/30 06:43:52;;;;;;;0.47;0.33;;;;;;;13.91;97.25;95978.25;6208288;23;20020;-88
2021/06/30 06:47:17;;;;;;;0.80;0.40;;;;;;;14.16;96.58;95975.28;6186123;23;20004;-87
2021/06/30 06:59:01;;;;;;;1.47;0.50;;;;;;;16.75;82.73;95978.56;6005454;23;20556;-88
2021/06/30 07:01:32;;;;;;;1.08;0.30;;;;;;;15.94;82.43;95971.44;6002059;23;20120;-89
2021/06/30 07:07:52;;;;;;;3.80;1.38;;;;;;;16.42;81.75;95976.66;6070886;23;20067;-89
2021/06/30 07:10:18;;;;;;;5.00;2.10;;;;;;;16.12;82.49;95974.34;6077810;23;20025;-89
2021/06/30 07:12:47;;;;;;;0.85;0.50;;;;;;;16.13;80.55;95976.00;6132620;23;20033;-90
2021/06/30 07:15:13;;;;;;;1.77;0.60;;;;;;;16.27;79.98;95976.84;6179389;23;20067;-90
2021/06/30 07:18:12;;;;;;;1.65;0.30;;;;;;;16.66;79.60;95976.06;6192131;23;20004;-90
2021/06/30 07:20:42;;;;;;;0.67;0.40;;;;;;;16.65;79.21;95968.31;6221569;23;20024;-89
2021/06/30 07:23:12;;;;;;;0.63;0.30;;;;;;;17.08;76.46;95970.59;6189791;23;20012;-89
2021/06/30 07:29:26;;;;;;;1.40;0.43;;;;;;;18.58;71.40;95961.41;6221285;23;20015;-90
2021/06/30 07:31:55;;;;;;;0.52;0.30;;;;;;;18.76;70.96;95962.53;6195639;23;20091;-91
2021/06/30 07:34:21;;;;;;;0.43;0.30;;;;;;;18.12;70.74;95957.19;6189997;23;20032;-91
2021/06/30 07:36:47;;;;;;;3.63;0.30;;;;;;;18.73;70.04;95962.94;6188400;23;20763;-91
2021/06/30 07:39:13;;;;;;;1.13;0.38;;;;;;;18.45;69.22;95960.69;6189352;23;20087;-90
2021/06/30 07:41:38;;;;;;;2.85;0.45;;;;;;;18.43;71.21;95958.22;6188350;23;20044;-91
2021/06/30 07:44:05;;;;;;;1.08;0.40;;;;;;;19.14;66.58;95953.56;6190597;23;20306;-91
2021/06/30 07:46:31;;;;;;;0.47;0.47;;;;;;;19.49;64.53;95953.84;6211862;23;20083;-91
2021/06/30 07:48:56;;;;;;;0.70;0.30;;;;;;;18.77;68.25;95961.47;6185984;23;20087;-90
2021/06/30 07:51:22;;;;;;;0.55;0.30;;;;;;;18.48;67.26;95965.56;6191132;23;20702;-91
2021/06/30 07:53:48;;;;;;;0.73;0.30;;;;;;;19.82;63.51;95956.16;6211370;23;20721;-89
2021/06/30 07:56:14;;;;;;;0.32;0.30;;;;;;;19.46;63.53;95964.97;6213955;23;20012;-90
2021/06/30 07:58:42;;;;;;;0.57;0.20;;;;;;;18.52;65.81;95972.91;6190403;23;20032;-90
2021/06/30 08:01:20;;;;;;;0.30;0.30;;;;;;;18.19;68.62;95966.97;6190019;23;20070;-90
2021/06/30 08:03:47;;;;;;;1.10;0.32;;;;;;;18.10;68.96;95975.19;6190917;23;20095;-90
2021/06/30 08:06:13;;;;;;;0.73;0.40;;;;;;;17.59;70.89;95978.66;6215854;23;20088;-90
2021/06/30 08:08:57;;;;;;;0.45;0.32;;;;;;;17.16;69.97;95986.31;6189864;23;20408;-90
2021/06/30 08:11:23;;;;;;;1.90;0.40;;;;;;;17.18;70.17;95981.59;6187824;23;20008;-90
2021/06/30 08:14:42;;;;;;;0.20;0.20;;;;;;;19.30;63.91;95974.34;6186564;23;20031;-90
2021/06/30 08:18:01;;;;;;;0.20;0.20;;;;;;;17.71;67.58;95970.03;6215608;23;20015;-92
2021/06/30 08:20:28;;;;;;;3.17;0.40;;;;;;;17.63;68.84;95973.72;6194186;23;20078;-90
2021/06/30 08:22:53;;;;;;;0.28;0.28;;;;;;;17.70;69.47;95974.50;6226777;23;20044;-90
2021/06/30 08:25:22;;;;;;;2.65;0.57;;;;;;;17.23;71.92;95973.81;6221218;23;20008;-90
2021/06/30 08:27:55;;;;;;;0.90;0.43;;;;;;;16.98;73.23;95981.63;6190125;23;20424;-90
2021/06/30 08:30:21;;;;;;;0.85;0.30;;;;;;;16.93;73.03;95987.56;6189481;23;20015;-91
2021/06/30 08:32:49;;;;;;;0.75;0.40;;;;;;;17.28;73.02;95992.63;6190110;23;20008;-90
2021/06/30 08:35:15;;;;;;;0.65;0.40;;;;;;;17.77;69.87;95977.19;6214377;23;20346;-90
2021/06/30 08:37:44;;;;;;;0.47;0.35;;;;;;;19.20;65.12;95971.38;6189181;23;20009;-90
2021/06/30 08:40:13;;;;;;;0.73;0.30;;;;;;;19.69;64.63;95975.00;6188460;23;20012;-91
2021/06/30 08:42:43;;;;;;;0.35;0.30;;;;;;;19.53;64.39;95979.84;6187594;23;20011;-91
2021/06/30 08:45:09;;;;;;;1.00;0.40;;;;;;;18.32;66.49;95974.88;6187689;23;20016;-90
2021/06/30 08:47:36;;;;;;;2.00;0.40;;;;;;;17.59;68.19;95977.84;6186936;23;20013;-91
2021/06/30 08:50:07;;;;;;;3.40;0.50;;;;;;;17.64;69.04;95980.69;6185111;23;20440;-90
2021/06/30 08:52:37;;;;;;;1.95;0.70;;;;;;;17.70;70.04;95976.34;6185621;23;20452;-90
2021/06/30 08:55:21;;;;;;;1.23;0.50;;;;;;;19.74;63.90;95962.59;6187749;23;20074;-90
2021/06/30 08:57:48;;;;;;;0.80;0.40;;;;;;;20.71;60.81;95970.56;6189375;23;20047;-91
2021/06/30 09:00:16;;;;;;;6.53;3.80;;;;;;;21.96;56.40;95959.72;6189845;23;20012;-91
2021/06/30 09:02:43;;;;;;;8.52;4.40;;;;;;;22.20;54.91;95961.31;6214837;23;20015;-91
2021/06/30 09:07:52;;;;;;;0.90;0.50;;;;;;;20.08;61.40;95973.69;6223304;23;20009;-90
2021/06/30 09:10:38;;;;;;;0.60;0.30;;;;;;;19.56;63.51;95967.91;6201789;23;20012;-90
2021/06/30 09:13:32;;;;;;;1.85;0.40;;;;;;;21.19;56.65;95961.56;6189038;23;20013;-90
2021/06/30 09:15:59;;;;;;;1.70;0.22;;;;;;;21.36;54.87;95964.38;6214243;23;20028;-91
2021/06/30 09:18:30;;;;;;;1.77;1.05;;;;;;;22.68;51.38;95951.97;6187462;23;20008;-91
2021/06/30 09:21:30;;;;;;;2.83;0.70;;;;;;;22.21;50.58;95946.03;6185533;23;20021;-91
2021/06/30 09:24:17;;;;;;;2.78;1.10;;;;;;;20.63;54.34;95957.53;6189023;23;20013;-90
2021/06/30 09:26:53;;;;;;;1.58;0.32;;;;;;;20.18;56.92;95952.59;6210545;23;20099;-90
2021/06/30 09:29:21;;;;;;;0.40;0.30;;;;;;;18.92;62.24;95961.97;6186438;23;20023;-91
2021/06/30 09:31:52;;;;;;;0.77;0.28;;;;;;;18.56;65.23;95963.44;6186923;23;20001;-91
2021/06/30 09:34:26;;;;;;;2.00;0.30;;;;;;;18.64;63.64;95970.34;6186736;23;20016;-90
2021/06/30 09:37:01;;;;;;;0.75;0.43;;;;;;;18.95;64.35;95976.72;6186772;23;20008;-91
2021/06/30 09:39:28;;;;;;;2.63;0.63;;;;;;;19.45;61.11;95971.31;6186378;23;20098;-90
2021/06/30 09:42:08;;;;;;;1.80;0.80;;;;;;;19.19;62.08;95972.41;6187479;23;20232;-90
2021/06/30 09:44:35;;;;;;;2.08;0.40;;;;;;;18.54;64.78;95975.34;6186775;23;20024;-90
2021/06/30 09:47:04;;;;;;;4.53;0.63;;;;;;;18.91;64.70;95971.00;6186106;23;20013;-90
2021/06/30 09:49:32;;;;;;;3.88;0.73;;;;;;;18.63;65.46;95981.22;6211609;23;20013;-89
2021/06/30 09:52:13;;;;;;;2.17;0.80;;;;;;;18.78;65.37;95971.94;6186503;23;20035;-90
2021/06/30 09:54:41;;;;;;;8.88;2.42;;;;;;;19.10;66.06;95968.38;6185127;23;20009;-89
2021/06/30 09:57:15;;;;;;;1.17;0.60;;;;;;;19.79;63.85;95964.63;6184742;23;20008;-88
2021/06/30 09:59:43;;;;;;;1.05;0.43;;;;;;;20.38;61.25;95973.69;6185296;23;20036;-89
2021/06/30 10:02:17;;;;;;;1.42;0.75;;;;;;;19.18;66.90;95982.25;6186058;23;20008;-90
2021/06/30 10:05:02;;;;;;;1.05;0.47;;;;;;;18.26;68.48;95981.06;6185944;23;20012;-90
2021/06/30 10:07:29;;;;;;;1.15;0.40;;;;;;;18.81;67.24;95981.31;6186233;23;20024;-89
2021/06/30 10:10:00;;;;;;;0.60;0.30;;;;;;;18.79;68.16;95983.41;6185606;23;20079;-90
2021/06/30 10:12:28;;;;;;;1.17;0.35;;;;;;;20.70;63.19;95976.16;6210571;23;20004;-90
2021/06/30 10:14:56;;;;;;;0.30;0.30;;;;;;;21.36;55.74;95972.41;6186381;23;20036;-90
2021/06/30 10:17:23;;;;;;;0.43;0.30;;;;;;;21.12;57.53;95970.72;6189694;23;20397;-90
2021/06/30 10:19:51;;;;;;;0.75;0.15;;;;;;;20.61;57.19;95964.16;6187263;23;20008;-90
2021/06/30 10:22:20;;;;;;;0.65;0.43;;;;;;;21.18;55.39;95954.56;6188313;23;20070;-90
2021/06/30 10:24:46;;;;;;;0.45;0.30;;;;;;;21.26;53.49;95949.91;6189842;23;20556;-89
2021/06/30 10:27:13;;;;;;;0.80;0.40;;;;;;;21.31;54.34;95958.88;6185487;23;20020;-90
2021/06/30 10:29:43;;;;;;;0.73;0.65;;;;;;;20.76;52.92;95961.03;6209911;23;20492;-89
2021/06/30 10:32:12;;;;;;;0.70;0.60;;;;;;;19.99;54.28;95967.84;6187971;23;20511;-90
2021/06/30 10:34:43;;;;;;;3.58;2.25;;;;;;;20.63;55.65;95975.44;6187829;23;20488;-90
2021/06/30 10:37:19;;;;;;;2.80;1.77;;;;;;;20.22;55.67;95971.66;6187710;23;20075;-90
2021/06/30 10:39:54;;;;;;;1.33;0.60;;;;;;;19.77;57.97;95972.03;6188720;23;20604;-90
2021/06/30 10:42:37;;;;;;;0.20;0.20;;;;;;;20.11;59.34;95986.59;6189769;23;20013;-90
2021/06/30 10:45:13;;;;;;;0.50;0.38;;;;;;;18.21;64.96;95995.00;6188446;23;20020;-90
2021/06/30 10:47:44;;;;;;;0.98;0.20;;;;;;;19.00;63.11;96001.66;6213755;23;20343;-90
2021/06/30 10:50:31;;;;;;;0.50;0.35;;;;;;;18.01;70.34;96019.06;6216499;23;20013;-90
2021/06/30 10:53:04;;;;;;;1.98;0.57;;;;;;;16.90;78.24;96034.94;6215156;23;20032;-88
2021/06/30 10:59:17;;;;;;;2.53;0.57;;;;;;;16.29;87.88;96040.31;6221826;23;20043;-93
2021/06/30 11:02:12;;;;;;;1.67;0.52;;;;;;;16.02;88.75;96041.03;6199282;23;20016;-93
2021/06/30 11:04:39;;;;;;;1.58;0.47;;;;;;;16.25;93.09;96035.41;6207751;23;20021;-93
2021/06/30 11:07:33;;;;;;;1.17;0.45;;;;;;;15.49;89.78;96039.91;6196663;23;19996;-92
2021/06/30 11:10:37;;;;;;;0.88;0.50;;;;;;;15.29;92.63;96035.31;6187168;23;20015;-92
2021/06/30 11:13:05;;;;;;;0.57;0.40;;;;;;;15.30;90.70;96030.84;6189700;23;20036;-92
2021/06/30 11:15:40;;;;;;;1.52;0.47;;;;;;;15.55;88.89;96012.63;6191772;23;20009;-92
2021/06/30 11:22:04;;;;;;;0.30;0.25;;;;;;;16.69;89.68;96006.72;6154265;23;20100;-92
2021/06/30 11:24:44;;;;;;;1.65;0.55;;;;;;;17.23;84.43;95994.25;6189532;23;20340;-89
2021/06/30 11:27:58;;;;;;;0.57;0.20;;;;;;;17.57;82.66;96001.97;6195335;23;20483;-91
2021/06/30 11:37:28;;;;;;;1.17;0.30;;;;;;;18.96;76.82;95991.66;6219512;23;20023;-93
2021/06/30 11:40:10;;;;;;;0.57;0.40;;;;;;;19.51;73.95;95981.09;6192706;23;20039;-92
2021/06/30 11:42:40;;;;;;;2.25;0.60;;;;;;;20.88;71.43;95980.59;6192782;23;20013;-92
2021/06/30 11:45:30;;;;;;;1.27;0.30;;;;;;;22.52;65.64;95964.28;6192653;23;20436;-92
2021/06/30 11:48:02;;;;;;;0.63;0.30;;;;;;;22.14;61.83;95956.88;6178316;23;20095;-93
2021/06/30 11:50:31;;;;;;;1.45;0.50;;;;;;;20.45;73.90;95954.88;6192658;23;20013;-93
2021/06/30 12:06:27;;;;;;;0.88;0.60;;;;;;;20.42;78.32;95948.19;5129879;27;20712;-79
2021/06/30 12:09:14;;;;;;;1.02;0.57;;;;;;;19.82;73.23;95947.31;5117322;28;20093;-79
2021/06/30 12:11:44;;;;;;;0.50;0.40;;;;;;;20.82;71.49;95949.44;5107254;28;20126;-79
2021/06/30 12:14:13;;;;;;;1.48;0.55;;;;;;;22.55;65.36;95936.19;5095810;28;20034;-79
2021/06/30 12:16:47;;;;;;;6.78;4.55;;;;;;;22.19;64.27;95942.78;5100326;28;20053;-78
2021/06/30 12:19:16;;;;;;;6.20;3.67;;;;;;;22.63;61.74;95943.81;5084554;28;20759;-77
2021/06/30 12:21:44;;;;;;;1.60;1.10;;;;;;;23.11;57.10;95949.75;5090473;28;20410;-77
2021/06/30 12:24:29;;;;;;;8.98;5.45;;;;;;;23.20;57.85;95943.69;5089706;27;20374;-78
2021/06/30 12:27:09;;;;;;;0.60;0.40;;;;;;;20.85;61.27;95965.81;5098340;28;20084;-83
2021/06/30 12:29:39;;;;;;;0.20;0.20;;;;;;;20.65;60.22;95962.63;5093856;28;20431;-83
2021/06/30 12:32:13;;;;;;;0.40;0.40;;;;;;;20.22;63.59;95961.81;5093154;27;20035;-82
2021/06/30 12:34:41;;;;;;;0.73;0.30;;;;;;;20.13;67.09;95965.00;5102596;28;20099;-82
2021/06/30 12:37:20;;;;;;;0.90;0.45;;;;;;;19.29;72.15;95967.38;5110645;27;20027;-83